sensor_id;sensor_type;location;lat;lon;timestamp;P1;durP1;ratioP1;P2;durP2;ratioP2
6983;SDS011;3532;51.118;7.210;2023-06-10T00:00:38;7.07;;;6.47;;
6983;SDS011;3532;51.118;7.210;2023-06-10T00:03:06;8.97;;;7.10;;
6983;SDS011;3532;51.118;7.210;2023-06-10T00:05:31;7.30;;;6.60;;
6983;SDS011;3532;51.118;7.210;2023-06-10T00:07:56;7.53;;;6.87;;
6983;SDS011;3532;51.118;7.210;2023-06-10T00:10:23;7.60;;;7.00;;
6983;SDS011;3532;51.118;7.210;2023-06-10T00:12:49;7.83;;;7.13;;
6983;SDS011;3532;51.118;7.210;2023-06-10T00:15:14;8.00;;;7.30;;
6983;SDS011;3532;51.118;7.210;2023-06-10T00:17:40;7.53;;;6.93;;
6983;SDS011;3532;51.118;7.210;2023-06-10T00:20:09;7.80;;;7.00;;
6983;SDS011;3532;51.118;7.210;2023-06-10T00:22:37;8.30;;;7.53;;
6983;SDS011;3532;51.118;7.210;2023-06-10T00:25:03;8.57;;;7.17;;
6983;SDS011;3532;51.118;7.210;2023-06-10T00:27:30;6.90;;;6.30;;
6983;SDS011;3532;51.118;7.210;2023-06-10T00:30:00;7.60;;;6.90;;
6983;SDS011;3532;51.118;7.210;2023-06-10T00:32:29;9.20;;;7.33;;
6983;SDS011;3532;51.118;7.210;2023-06-10T00:34:55;11.07;;;7.10;;
6983;SDS011;3532;51.118;7.210;2023-06-10T00:37:21;8.07;;;7.37;;
6983;SDS011;3532;51.118;7.210;2023-06-10T00:39:46;7.63;;;6.93;;
6983;SDS011;3532;51.118;7.210;2023-06-10T00:42:11;8.33;;;7.50;;
6983;SDS011;3532;51.118;7.210;2023-06-10T00:44:37;7.73;;;7.03;;
6983;SDS011;3532;51.118;7.210;2023-06-10T00:47:02;13.83;;;7.60;;
6983;SDS011;3532;51.118;7.210;2023-06-10T00:49:28;8.10;;;7.33;;
6983;SDS011;3532;51.118;7.210;2023-06-10T00:51:53;8.23;;;7.43;;
6983;SDS011;3532;51.118;7.210;2023-06-10T00:54:19;7.87;;;6.97;;
6983;SDS011;3532;51.118;7.210;2023-06-10T00:56:45;7.80;;;7.03;;
6983;SDS011;3532;51.118;7.210;2023-06-10T00:59:12;7.60;;;7.00;;
6983;SDS011;3532;51.118;7.210;2023-06-10T01:01:39;9.43;;;7.90;;
6983;SDS011;3532;51.118;7.210;2023-06-10T01:04:04;7.60;;;6.90;;
6983;SDS011;3532;51.118;7.210;2023-06-10T01:06:35;7.93;;;7.23;;
6983;SDS011;3532;51.118;7.210;2023-06-10T01:09:13;7.80;;;7.17;;
6983;SDS011;3532;51.118;7.210;2023-06-10T01:11:52;9.00;;;7.30;;
6983;SDS011;3532;51.118;7.210;2023-06-10T01:14:23;7.83;;;7.03;;
6983;SDS011;3532;51.118;7.210;2023-06-10T01:16:49;8.47;;;7.20;;
6983;SDS011;3532;51.118;7.210;2023-06-10T01:19:14;7.57;;;6.87;;
6983;SDS011;3532;51.118;7.210;2023-06-10T01:21:42;8.13;;;7.43;;
6983;SDS011;3532;51.118;7.210;2023-06-10T01:24:13;7.83;;;7.10;;
6983;SDS011;3532;51.118;7.210;2023-06-10T01:26:38;7.63;;;6.87;;
6983;SDS011;3532;51.118;7.210;2023-06-10T01:29:54;7.57;;;6.87;;
6983;SDS011;3532;51.118;7.210;2023-06-10T01:32:34;8.47;;;7.60;;
6983;SDS011;3532;51.118;7.210;2023-06-10T01:35:01;8.00;;;6.97;;
6983;SDS011;3532;51.118;7.210;2023-06-10T01:37:27;7.80;;;7.10;;
6983;SDS011;3532;51.118;7.210;2023-06-10T01:39:55;7.97;;;6.73;;
6983;SDS011;3532;51.118;7.210;2023-06-10T01:42:22;9.63;;;7.03;;
6983;SDS011;3532;51.118;7.210;2023-06-10T01:44:48;7.97;;;7.27;;
6983;SDS011;3532;51.118;7.210;2023-06-10T01:47:13;7.40;;;6.70;;
6983;SDS011;3532;51.118;7.210;2023-06-10T01:49:39;8.20;;;7.03;;
6983;SDS011;3532;51.118;7.210;2023-06-10T01:52:04;8.23;;;7.43;;
6983;SDS011;3532;51.118;7.210;2023-06-10T01:54:30;8.57;;;7.20;;
6983;SDS011;3532;51.118;7.210;2023-06-10T01:56:55;9.43;;;7.97;;
6983;SDS011;3532;51.118;7.210;2023-06-10T01:59:20;8.87;;;6.87;;
6983;SDS011;3532;51.118;7.210;2023-06-10T02:01:46;9.30;;;7.23;;
6983;SDS011;3532;51.118;7.210;2023-06-10T02:04:11;8.60;;;7.10;;
6983;SDS011;3532;51.118;7.210;2023-06-10T02:06:36;7.53;;;6.83;;
6983;SDS011;3532;51.118;7.210;2023-06-10T02:09:02;7.77;;;7.07;;
6983;SDS011;3532;51.118;7.210;2023-06-10T02:11:28;7.63;;;6.97;;
6983;SDS011;3532;51.118;7.210;2023-06-10T02:13:53;7.57;;;6.90;;
6983;SDS011;3532;51.118;7.210;2023-06-10T02:16:19;7.67;;;6.97;;
6983;SDS011;3532;51.118;7.210;2023-06-10T02:18:46;7.53;;;6.77;;
6983;SDS011;3532;51.118;7.210;2023-06-10T02:21:12;7.77;;;7.07;;
6983;SDS011;3532;51.118;7.210;2023-06-10T02:23:37;8.00;;;7.20;;
6983;SDS011;3532;51.118;7.210;2023-06-10T02:26:02;7.23;;;6.57;;
6983;SDS011;3532;51.118;7.210;2023-06-10T02:28:28;6.70;;;6.10;;
6983;SDS011;3532;51.118;7.210;2023-06-10T02:30:53;7.17;;;6.47;;
6983;SDS011;3532;51.118;7.210;2023-06-10T02:33:18;7.23;;;6.63;;
6983;SDS011;3532;51.118;7.210;2023-06-10T02:35:44;8.40;;;6.60;;
6983;SDS011;3532;51.118;7.210;2023-06-10T02:38:10;6.60;;;6.00;;
6983;SDS011;3532;51.118;7.210;2023-06-10T02:40:35;7.27;;;6.37;;
6983;SDS011;3532;51.118;7.210;2023-06-10T02:43:00;6.97;;;6.27;;
6983;SDS011;3532;51.118;7.210;2023-06-10T02:45:26;7.20;;;6.60;;
6983;SDS011;3532;51.118;7.210;2023-06-10T02:47:51;7.67;;;7.03;;
6983;SDS011;3532;51.118;7.210;2023-06-10T02:50:16;7.70;;;6.70;;
6983;SDS011;3532;51.118;7.210;2023-06-10T02:52:42;7.13;;;6.50;;
6983;SDS011;3532;51.118;7.210;2023-06-10T02:55:07;6.47;;;5.87;;
6983;SDS011;3532;51.118;7.210;2023-06-10T02:57:32;6.90;;;6.23;;
6983;SDS011;3532;51.118;7.210;2023-06-10T02:59:58;7.00;;;6.50;;
6983;SDS011;3532;51.118;7.210;2023-06-10T03:02:23;7.57;;;6.17;;
6983;SDS011;3532;51.118;7.210;2023-06-10T03:04:54;6.47;;;5.73;;
6983;SDS011;3532;51.118;7.210;2023-06-10T03:07:20;6.53;;;5.97;;
6983;SDS011;3532;51.118;7.210;2023-06-10T03:09:46;7.70;;;6.33;;
6983;SDS011;3532;51.118;7.210;2023-06-10T03:12:11;7.17;;;6.47;;
6983;SDS011;3532;51.118;7.210;2023-06-10T03:14:36;6.40;;;5.73;;
6983;SDS011;3532;51.118;7.210;2023-06-10T03:17:03;6.30;;;5.70;;
6983;SDS011;3532;51.118;7.210;2023-06-10T03:19:29;7.27;;;6.57;;
6983;SDS011;3532;51.118;7.210;2023-06-10T03:22:11;6.17;;;5.67;;
6983;SDS011;3532;51.118;7.210;2023-06-10T03:24:38;6.30;;;5.70;;
6983;SDS011;3532;51.118;7.210;2023-06-10T03:27:08;6.50;;;5.90;;
6983;SDS011;3532;51.118;7.210;2023-06-10T03:29:34;6.13;;;5.63;;
6983;SDS011;3532;51.118;7.210;2023-06-10T03:32:00;7.30;;;5.77;;
6983;SDS011;3532;51.118;7.210;2023-06-10T03:34:25;6.43;;;5.90;;
6983;SDS011;3532;51.118;7.210;2023-06-10T03:36:50;6.87;;;6.27;;
6983;SDS011;3532;51.118;7.210;2023-06-10T03:39:16;6.47;;;5.87;;
6983;SDS011;3532;51.118;7.210;2023-06-10T03:41:41;8.50;;;6.73;;
6983;SDS011;3532;51.118;7.210;2023-06-10T03:44:06;6.40;;;5.80;;
6983;SDS011;3532;51.118;7.210;2023-06-10T03:46:32;6.40;;;5.80;;
6983;SDS011;3532;51.118;7.210;2023-06-10T03:48:57;6.77;;;5.87;;
6983;SDS011;3532;51.118;7.210;2023-06-10T03:51:26;8.07;;;6.10;;
6983;SDS011;3532;51.118;7.210;2023-06-10T03:53:51;6.17;;;5.57;;
6983;SDS011;3532;51.118;7.210;2023-06-10T03:56:17;7.63;;;5.90;;
6983;SDS011;3532;51.118;7.210;2023-06-10T03:58:42;6.50;;;5.90;;
6983;SDS011;3532;51.118;7.210;2023-06-10T04:01:07;6.20;;;5.63;;
6983;SDS011;3532;51.118;7.210;2023-06-10T04:03:33;7.37;;;6.23;;
6983;SDS011;3532;51.118;7.210;2023-06-10T04:05:58;6.00;;;5.40;;
6983;SDS011;3532;51.118;7.210;2023-06-10T04:08:23;8.23;;;6.13;;
6983;SDS011;3532;51.118;7.210;2023-06-10T04:10:49;6.67;;;6.07;;
6983;SDS011;3532;51.118;7.210;2023-06-10T04:13:14;7.47;;;6.23;;
6983;SDS011;3532;51.118;7.210;2023-06-10T04:15:40;7.03;;;6.33;;
6983;SDS011;3532;51.118;7.210;2023-06-10T04:18:05;6.27;;;5.67;;
6983;SDS011;3532;51.118;7.210;2023-06-10T04:20:31;6.37;;;5.77;;
6983;SDS011;3532;51.118;7.210;2023-06-10T04:22:56;7.37;;;6.40;;
6983;SDS011;3532;51.118;7.210;2023-06-10T04:25:22;7.63;;;5.60;;
6983;SDS011;3532;51.118;7.210;2023-06-10T04:27:47;6.10;;;5.50;;
6983;SDS011;3532;51.118;7.210;2023-06-10T04:30:13;7.00;;;5.57;;
6983;SDS011;3532;51.118;7.210;2023-06-10T04:32:39;6.93;;;5.60;;
6983;SDS011;3532;51.118;7.210;2023-06-10T04:35:04;5.70;;;5.10;;
6983;SDS011;3532;51.118;7.210;2023-06-10T04:37:30;7.00;;;6.40;;
6983;SDS011;3532;51.118;7.210;2023-06-10T04:39:55;6.87;;;5.80;;
6983;SDS011;3532;51.118;7.210;2023-06-10T04:42:22;5.50;;;4.83;;
6983;SDS011;3532;51.118;7.210;2023-06-10T04:44:47;6.47;;;5.80;;
6983;SDS011;3532;51.118;7.210;2023-06-10T04:47:13;8.13;;;5.60;;
6983;SDS011;3532;51.118;7.210;2023-06-10T04:49:38;5.47;;;4.97;;
6983;SDS011;3532;51.118;7.210;2023-06-10T04:52:03;6.20;;;5.53;;
6983;SDS011;3532;51.118;7.210;2023-06-10T04:54:30;6.17;;;5.57;;
6983;SDS011;3532;51.118;7.210;2023-06-10T04:56:55;6.80;;;5.50;;
6983;SDS011;3532;51.118;7.210;2023-06-10T04:59:20;5.33;;;4.87;;
6983;SDS011;3532;51.118;7.210;2023-06-10T05:01:46;7.07;;;6.03;;
6983;SDS011;3532;51.118;7.210;2023-06-10T05:04:11;6.70;;;6.00;;
6983;SDS011;3532;51.118;7.210;2023-06-10T05:06:36;6.40;;;5.67;;
6983;SDS011;3532;51.118;7.210;2023-06-10T05:09:02;6.43;;;5.00;;
6983;SDS011;3532;51.118;7.210;2023-06-10T05:11:27;6.03;;;5.50;;
6983;SDS011;3532;51.118;7.210;2023-06-10T05:13:52;5.27;;;4.77;;
6983;SDS011;3532;51.118;7.210;2023-06-10T05:16:18;5.50;;;5.00;;
6983;SDS011;3532;51.118;7.210;2023-06-10T05:18:43;7.03;;;5.53;;
6983;SDS011;3532;51.118;7.210;2023-06-10T05:21:08;7.37;;;5.77;;
6983;SDS011;3532;51.118;7.210;2023-06-10T05:23:34;7.33;;;5.60;;
6983;SDS011;3532;51.118;7.210;2023-06-10T05:25:59;5.73;;;5.03;;
6983;SDS011;3532;51.118;7.210;2023-06-10T05:28:25;5.93;;;5.33;;
6983;SDS011;3532;51.118;7.210;2023-06-10T05:30:50;6.67;;;6.07;;
6983;SDS011;3532;51.118;7.210;2023-06-10T05:33:16;7.33;;;5.70;;
6983;SDS011;3532;51.118;7.210;2023-06-10T05:35:41;6.23;;;5.63;;
6983;SDS011;3532;51.118;7.210;2023-06-10T05:38:07;5.93;;;5.43;;
6983;SDS011;3532;51.118;7.210;2023-06-10T05:40:32;5.63;;;5.13;;
6983;SDS011;3532;51.118;7.210;2023-06-10T05:42:57;6.37;;;5.53;;
6983;SDS011;3532;51.118;7.210;2023-06-10T05:45:22;6.07;;;5.37;;
6983;SDS011;3532;51.118;7.210;2023-06-10T05:47:48;5.87;;;5.37;;
6983;SDS011;3532;51.118;7.210;2023-06-10T05:50:13;6.10;;;5.50;;
6983;SDS011;3532;51.118;7.210;2023-06-10T05:52:38;6.43;;;5.83;;
6983;SDS011;3532;51.118;7.210;2023-06-10T05:55:05;5.93;;;5.43;;
6983;SDS011;3532;51.118;7.210;2023-06-10T05:57:30;6.57;;;5.83;;
6983;SDS011;3532;51.118;7.210;2023-06-10T05:59:56;6.67;;;5.97;;
6983;SDS011;3532;51.118;7.210;2023-06-10T06:02:21;6.67;;;5.60;;
6983;SDS011;3532;51.118;7.210;2023-06-10T06:04:47;6.10;;;5.50;;
6983;SDS011;3532;51.118;7.210;2023-06-10T06:07:12;5.73;;;5.27;;
6983;SDS011;3532;51.118;7.210;2023-06-10T06:09:38;7.40;;;5.30;;
6983;SDS011;3532;51.118;7.210;2023-06-10T06:12:03;12.90;;;6.30;;
6983;SDS011;3532;51.118;7.210;2023-06-10T06:14:31;7.10;;;5.80;;
6983;SDS011;3532;51.118;7.210;2023-06-10T06:16:57;6.10;;;5.63;;
6983;SDS011;3532;51.118;7.210;2023-06-10T06:19:22;6.23;;;5.63;;
6983;SDS011;3532;51.118;7.210;2023-06-10T06:21:47;5.93;;;5.33;;
6983;SDS011;3532;51.118;7.210;2023-06-10T06:24:13;6.60;;;6.00;;
6983;SDS011;3532;51.118;7.210;2023-06-10T06:26:40;5.83;;;5.33;;
6983;SDS011;3532;51.118;7.210;2023-06-10T06:29:05;5.70;;;5.03;;
6983;SDS011;3532;51.118;7.210;2023-06-10T06:31:30;6.20;;;5.70;;
6983;SDS011;3532;51.118;7.210;2023-06-10T06:33:56;6.67;;;5.97;;
6983;SDS011;3532;51.118;7.210;2023-06-10T06:36:21;7.70;;;6.33;;
6983;SDS011;3532;51.118;7.210;2023-06-10T06:38:47;6.93;;;5.73;;
6983;SDS011;3532;51.118;7.210;2023-06-10T06:41:12;9.13;;;5.93;;
6983;SDS011;3532;51.118;7.210;2023-06-10T06:43:38;6.50;;;5.90;;
6983;SDS011;3532;51.118;7.210;2023-06-10T06:46:03;6.20;;;5.60;;
6983;SDS011;3532;51.118;7.210;2023-06-10T06:48:28;7.10;;;6.30;;
6983;SDS011;3532;51.118;7.210;2023-06-10T06:50:54;6.53;;;6.00;;
6983;SDS011;3532;51.118;7.210;2023-06-10T06:53:21;6.30;;;5.57;;
6983;SDS011;3532;51.118;7.210;2023-06-10T06:55:46;6.10;;;5.60;;
6983;SDS011;3532;51.118;7.210;2023-06-10T06:58:12;6.47;;;5.80;;
6983;SDS011;3532;51.118;7.210;2023-06-10T07:00:37;7.67;;;6.13;;
6983;SDS011;3532;51.118;7.210;2023-06-10T07:03:02;6.93;;;5.87;;
6983;SDS011;3532;51.118;7.210;2023-06-10T07:05:28;6.97;;;6.30;;
6983;SDS011;3532;51.118;7.210;2023-06-10T07:07:53;6.27;;;5.67;;
6983;SDS011;3532;51.118;7.210;2023-06-10T07:10:23;6.23;;;5.73;;
6983;SDS011;3532;51.118;7.210;2023-06-10T07:12:49;6.43;;;5.83;;
6983;SDS011;3532;51.118;7.210;2023-06-10T07:15:15;7.83;;;6.47;;
6983;SDS011;3532;51.118;7.210;2023-06-10T07:17:41;6.73;;;5.90;;
6983;SDS011;3532;51.118;7.210;2023-06-10T07:20:06;6.67;;;6.03;;
6983;SDS011;3532;51.118;7.210;2023-06-10T07:22:32;10.13;;;5.90;;
6983;SDS011;3532;51.118;7.210;2023-06-10T07:24:57;7.97;;;6.23;;
6983;SDS011;3532;51.118;7.210;2023-06-10T07:27:23;6.33;;;5.73;;
6983;SDS011;3532;51.118;7.210;2023-06-10T07:29:48;7.83;;;5.37;;
6983;SDS011;3532;51.118;7.210;2023-06-10T07:32:13;6.33;;;5.73;;
6983;SDS011;3532;51.118;7.210;2023-06-10T07:34:39;6.53;;;5.87;;
6983;SDS011;3532;51.118;7.210;2023-06-10T07:37:04;8.37;;;6.40;;
6983;SDS011;3532;51.118;7.210;2023-06-10T07:39:30;8.93;;;6.27;;
6983;SDS011;3532;51.118;7.210;2023-06-10T07:41:55;7.77;;;5.80;;
6983;SDS011;3532;51.118;7.210;2023-06-10T07:44:22;6.40;;;5.80;;
6983;SDS011;3532;51.118;7.210;2023-06-10T07:46:47;7.27;;;5.90;;
6983;SDS011;3532;51.118;7.210;2023-06-10T07:49:12;6.80;;;6.20;;
6983;SDS011;3532;51.118;7.210;2023-06-10T07:51:38;7.93;;;6.70;;
6983;SDS011;3532;51.118;7.210;2023-06-10T07:54:03;6.27;;;5.77;;
6983;SDS011;3532;51.118;7.210;2023-06-10T07:56:28;7.93;;;6.13;;
6983;SDS011;3532;51.118;7.210;2023-06-10T07:58:54;7.17;;;6.53;;
6983;SDS011;3532;51.118;7.210;2023-06-10T08:01:19;7.87;;;7.07;;
6983;SDS011;3532;51.118;7.210;2023-06-10T08:03:44;7.40;;;6.73;;
6983;SDS011;3532;51.118;7.210;2023-06-10T08:06:10;6.57;;;5.97;;
6983;SDS011;3532;51.118;7.210;2023-06-10T08:08:36;6.37;;;5.67;;
6983;SDS011;3532;51.118;7.210;2023-06-10T08:11:06;6.50;;;6.00;;
6983;SDS011;3532;51.118;7.210;2023-06-10T08:13:32;6.03;;;5.53;;
6983;SDS011;3532;51.118;7.210;2023-06-10T08:15:57;7.13;;;6.07;;
6983;SDS011;3532;51.118;7.210;2023-06-10T08:18:22;6.20;;;5.57;;
6983;SDS011;3532;51.118;7.210;2023-06-10T08:20:48;6.83;;;6.13;;
6983;SDS011;3532;51.118;7.210;2023-06-10T08:23:13;8.37;;;6.37;;
6983;SDS011;3532;51.118;7.210;2023-06-10T08:25:39;6.97;;;6.20;;
6983;SDS011;3532;51.118;7.210;2023-06-10T08:28:04;6.50;;;6.00;;
6983;SDS011;3532;51.118;7.210;2023-06-10T08:30:30;7.10;;;6.40;;
6983;SDS011;3532;51.118;7.210;2023-06-10T08:32:55;7.33;;;6.57;;
6983;SDS011;3532;51.118;7.210;2023-06-10T08:35:20;6.23;;;5.63;;
6983;SDS011;3532;51.118;7.210;2023-06-10T08:37:46;6.60;;;5.90;;
6983;SDS011;3532;51.118;7.210;2023-06-10T08:40:11;6.77;;;6.13;;
6983;SDS011;3532;51.118;7.210;2023-06-10T08:42:39;6.20;;;5.70;;
6983;SDS011;3532;51.118;7.210;2023-06-10T08:45:30;7.03;;;6.43;;
6983;SDS011;3532;51.118;7.210;2023-06-10T08:48:00;6.40;;;5.77;;
6983;SDS011;3532;51.118;7.210;2023-06-10T08:50:29;8.13;;;6.37;;
6983;SDS011;3532;51.118;7.210;2023-06-10T08:52:56;5.70;;;5.20;;
6983;SDS011;3532;51.118;7.210;2023-06-10T08:58:17;6.60;;;6.10;;
6983;SDS011;3532;51.118;7.210;2023-06-10T09:00:44;6.70;;;6.10;;
6983;SDS011;3532;51.118;7.210;2023-06-10T09:03:10;6.47;;;5.87;;
6983;SDS011;3532;51.118;7.210;2023-06-10T09:05:35;6.50;;;6.00;;
6983;SDS011;3532;51.118;7.210;2023-06-10T09:08:01;9.33;;;6.90;;
6983;SDS011;3532;51.118;7.210;2023-06-10T09:10:27;6.00;;;5.47;;
6983;SDS011;3532;51.118;7.210;2023-06-10T09:12:53;6.50;;;5.87;;
6983;SDS011;3532;51.118;7.210;2023-06-10T09:15:18;8.07;;;5.93;;
6983;SDS011;3532;51.118;7.210;2023-06-10T09:17:44;6.70;;;6.00;;
6983;SDS011;3532;51.118;7.210;2023-06-10T09:20:10;6.07;;;5.57;;
6983;SDS011;3532;51.118;7.210;2023-06-10T09:22:35;6.40;;;5.90;;
6983;SDS011;3532;51.118;7.210;2023-06-10T09:25:04;5.97;;;5.30;;
6983;SDS011;3532;51.118;7.210;2023-06-10T09:27:43;5.67;;;5.20;;
6983;SDS011;3532;51.118;7.210;2023-06-10T09:30:33;6.93;;;5.30;;
6983;SDS011;3532;51.118;7.210;2023-06-10T09:33:00;7.27;;;5.77;;
6983;SDS011;3532;51.118;7.210;2023-06-10T09:35:27;7.00;;;6.30;;
6983;SDS011;3532;51.118;7.210;2023-06-10T09:37:54;6.50;;;5.90;;
6983;SDS011;3532;51.118;7.210;2023-06-10T09:40:20;7.07;;;6.23;;
6983;SDS011;3532;51.118;7.210;2023-06-10T09:42:46;6.20;;;5.67;;
6983;SDS011;3532;51.118;7.210;2023-06-10T09:45:18;6.57;;;5.53;;
6983;SDS011;3532;51.118;7.210;2023-06-10T09:47:45;6.63;;;6.03;;
6983;SDS011;3532;51.118;7.210;2023-06-10T09:50:11;6.47;;;5.23;;
6983;SDS011;3532;51.118;7.210;2023-06-10T09:52:36;6.60;;;5.53;;
6983;SDS011;3532;51.118;7.210;2023-06-10T09:55:02;7.77;;;5.70;;
6983;SDS011;3532;51.118;7.210;2023-06-10T09:57:31;8.57;;;6.37;;
6983;SDS011;3532;51.118;7.210;2023-06-10T09:59:58;6.93;;;5.77;;
6983;SDS011;3532;51.118;7.210;2023-06-10T10:02:24;6.33;;;5.80;;
6983;SDS011;3532;51.118;7.210;2023-06-10T10:04:49;6.63;;;6.03;;
6983;SDS011;3532;51.118;7.210;2023-06-10T10:07:15;6.97;;;6.10;;
6983;SDS011;3532;51.118;7.210;2023-06-10T10:09:41;6.10;;;5.47;;
6983;SDS011;3532;51.118;7.210;2023-06-10T10:12:13;6.63;;;5.70;;
6983;SDS011;3532;51.118;7.210;2023-06-10T10:14:42;6.23;;;5.63;;
6983;SDS011;3532;51.118;7.210;2023-06-10T10:17:10;6.40;;;5.30;;
6983;SDS011;3532;51.118;7.210;2023-06-10T10:19:50;5.80;;;5.30;;
6983;SDS011;3532;51.118;7.210;2023-06-10T10:22:19;6.53;;;5.60;;
6983;SDS011;3532;51.118;7.210;2023-06-10T10:24:53;7.47;;;6.23;;
6983;SDS011;3532;51.118;7.210;2023-06-10T10:27:21;6.47;;;5.87;;
6983;SDS011;3532;51.118;7.210;2023-06-10T10:29:53;6.63;;;5.73;;
6983;SDS011;3532;51.118;7.210;2023-06-10T10:32:21;6.83;;;6.23;;
6983;SDS011;3532;51.118;7.210;2023-06-10T10:37:48;8.47;;;5.77;;
6983;SDS011;3532;51.118;7.210;2023-06-10T10:40:14;7.83;;;5.93;;
6983;SDS011;3532;51.118;7.210;2023-06-10T10:42:40;8.00;;;6.03;;
6983;SDS011;3532;51.118;7.210;2023-06-10T10:45:06;9.23;;;6.00;;
6983;SDS011;3532;51.118;7.210;2023-06-10T10:47:32;6.57;;;5.97;;
6983;SDS011;3532;51.118;7.210;2023-06-10T10:49:58;6.30;;;5.80;;
6983;SDS011;3532;51.118;7.210;2023-06-10T10:52:24;6.47;;;5.87;;
6983;SDS011;3532;51.118;7.210;2023-06-10T10:54:50;7.93;;;6.00;;
6983;SDS011;3532;51.118;7.210;2023-06-10T10:57:19;6.60;;;6.00;;
6983;SDS011;3532;51.118;7.210;2023-06-10T11:05:18;6.60;;;6.00;;
6983;SDS011;3532;51.118;7.210;2023-06-10T11:07:57;5.83;;;5.37;;
6983;SDS011;3532;51.118;7.210;2023-06-10T11:10:29;6.43;;;5.70;;
6983;SDS011;3532;51.118;7.210;2023-06-10T11:12:58;7.10;;;5.93;;
6983;SDS011;3532;51.118;7.210;2023-06-10T11:15:24;8.43;;;6.40;;
6983;SDS011;3532;51.118;7.210;2023-06-10T11:21:03;6.90;;;6.20;;
6983;SDS011;3532;51.118;7.210;2023-06-10T11:28:38;7.27;;;6.53;;
6983;SDS011;3532;51.118;7.210;2023-06-10T11:31:03;7.23;;;6.53;;
6983;SDS011;3532;51.118;7.210;2023-06-10T11:33:29;7.03;;;6.43;;
6983;SDS011;3532;51.118;7.210;2023-06-10T11:35:55;7.13;;;6.30;;
6983;SDS011;3532;51.118;7.210;2023-06-10T11:38:20;6.63;;;6.03;;
6983;SDS011;3532;51.118;7.210;2023-06-10T11:40:47;6.53;;;5.90;;
6983;SDS011;3532;51.118;7.210;2023-06-10T11:43:13;6.07;;;5.47;;
6983;SDS011;3532;51.118;7.210;2023-06-10T11:45:40;7.33;;;6.47;;
6983;SDS011;3532;51.118;7.210;2023-06-10T11:48:06;7.20;;;6.60;;
6983;SDS011;3532;51.118;7.210;2023-06-10T11:50:32;6.67;;;6.07;;
6983;SDS011;3532;51.118;7.210;2023-06-10T11:52:58;6.97;;;6.27;;
6983;SDS011;3532;51.118;7.210;2023-06-10T11:58:20;7.97;;;5.70;;
6983;SDS011;3532;51.118;7.210;2023-06-10T12:00:47;6.33;;;5.83;;
6983;SDS011;3532;51.118;7.210;2023-06-10T12:03:15;6.70;;;6.03;;
6983;SDS011;3532;51.118;7.210;2023-06-10T12:05:57;9.37;;;6.37;;
6983;SDS011;3532;51.118;7.210;2023-06-10T12:08:24;6.57;;;6.00;;
6983;SDS011;3532;51.118;7.210;2023-06-10T12:10:50;6.50;;;5.43;;
6983;SDS011;3532;51.118;7.210;2023-06-10T12:13:15;7.70;;;5.77;;
6983;SDS011;3532;51.118;7.210;2023-06-10T12:15:42;6.10;;;5.50;;
6983;SDS011;3532;51.118;7.210;2023-06-10T12:18:08;6.63;;;5.77;;
6983;SDS011;3532;51.118;7.210;2023-06-10T12:20:35;6.40;;;5.80;;
6983;SDS011;3532;51.118;7.210;2023-06-10T12:23:08;6.90;;;6.17;;
6983;SDS011;3532;51.118;7.210;2023-06-10T12:25:37;8.60;;;5.43;;
6983;SDS011;3532;51.118;7.210;2023-06-10T12:28:04;6.67;;;5.77;;
6983;SDS011;3532;51.118;7.210;2023-06-10T12:30:29;6.33;;;5.83;;
6983;SDS011;3532;51.118;7.210;2023-06-10T12:32:56;5.77;;;5.20;;
6983;SDS011;3532;51.118;7.210;2023-06-10T12:35:22;5.97;;;5.43;;
6983;SDS011;3532;51.118;7.210;2023-06-10T12:38:02;6.03;;;5.53;;
6983;SDS011;3532;51.118;7.210;2023-06-10T12:40:33;6.13;;;5.57;;
6983;SDS011;3532;51.118;7.210;2023-06-10T12:43:01;6.73;;;6.13;;
6983;SDS011;3532;51.118;7.210;2023-06-10T12:45:30;7.77;;;5.83;;
6983;SDS011;3532;51.118;7.210;2023-06-10T12:48:18;6.00;;;5.43;;
6983;SDS011;3532;51.118;7.210;2023-06-10T12:50:56;6.30;;;5.57;;
6983;SDS011;3532;51.118;7.210;2023-06-10T12:53:23;6.07;;;5.47;;
6983;SDS011;3532;51.118;7.210;2023-06-10T12:55:51;5.73;;;5.20;;
6983;SDS011;3532;51.118;7.210;2023-06-10T12:58:17;6.67;;;5.77;;
6983;SDS011;3532;51.118;7.210;2023-06-10T13:00:44;7.60;;;5.40;;
6983;SDS011;3532;51.118;7.210;2023-06-10T13:03:10;7.00;;;5.43;;
6983;SDS011;3532;51.118;7.210;2023-06-10T13:05:36;5.43;;;4.93;;
6983;SDS011;3532;51.118;7.210;2023-06-10T13:08:07;5.13;;;4.60;;
6983;SDS011;3532;51.118;7.210;2023-06-10T13:10:35;7.83;;;4.87;;
6983;SDS011;3532;51.118;7.210;2023-06-10T13:13:01;5.63;;;4.90;;
6983;SDS011;3532;51.118;7.210;2023-06-10T13:15:27;5.43;;;4.93;;
6983;SDS011;3532;51.118;7.210;2023-06-10T13:17:53;6.37;;;5.20;;
6983;SDS011;3532;51.118;7.210;2023-06-10T13:20:18;7.43;;;5.23;;
6983;SDS011;3532;51.118;7.210;2023-06-10T13:22:44;5.13;;;4.73;;
6983;SDS011;3532;51.118;7.210;2023-06-10T13:25:10;5.73;;;5.03;;
6983;SDS011;3532;51.118;7.210;2023-06-10T13:27:36;8.13;;;5.67;;
6983;SDS011;3532;51.118;7.210;2023-06-10T13:30:04;5.27;;;4.47;;
6983;SDS011;3532;51.118;7.210;2023-06-10T13:32:31;6.07;;;5.00;;
6983;SDS011;3532;51.118;7.210;2023-06-10T13:34:56;5.30;;;4.80;;
6983;SDS011;3532;51.118;7.210;2023-06-10T13:37:21;8.20;;;5.20;;
6983;SDS011;3532;51.118;7.210;2023-06-10T13:39:47;6.47;;;5.40;;
6983;SDS011;3532;51.118;7.210;2023-06-10T13:42:13;6.30;;;5.67;;
6983;SDS011;3532;51.118;7.210;2023-06-10T13:44:39;6.17;;;5.57;;
6983;SDS011;3532;51.118;7.210;2023-06-10T13:47:04;6.53;;;5.47;;
6983;SDS011;3532;51.118;7.210;2023-06-10T13:49:30;5.53;;;5.03;;
6983;SDS011;3532;51.118;7.210;2023-06-10T13:51:56;5.63;;;5.13;;
6983;SDS011;3532;51.118;7.210;2023-06-10T13:54:21;6.27;;;5.07;;
6983;SDS011;3532;51.118;7.210;2023-06-10T13:56:46;5.13;;;4.73;;
6983;SDS011;3532;51.118;7.210;2023-06-10T13:59:12;5.77;;;5.17;;
6983;SDS011;3532;51.118;7.210;2023-06-10T14:01:37;5.90;;;5.40;;
6983;SDS011;3532;51.118;7.210;2023-06-10T14:04:03;5.50;;;5.10;;
6983;SDS011;3532;51.118;7.210;2023-06-10T14:06:29;5.17;;;4.67;;
6983;SDS011;3532;51.118;7.210;2023-06-10T14:08:55;5.90;;;5.20;;
6983;SDS011;3532;51.118;7.210;2023-06-10T14:11:21;6.57;;;4.80;;
6983;SDS011;3532;51.118;7.210;2023-06-10T14:13:46;5.10;;;4.60;;
6983;SDS011;3532;51.118;7.210;2023-06-10T14:16:11;6.53;;;4.67;;
6983;SDS011;3532;51.118;7.210;2023-06-10T14:18:37;5.47;;;4.97;;
6983;SDS011;3532;51.118;7.210;2023-06-10T14:21:02;5.23;;;4.77;;
6983;SDS011;3532;51.118;7.210;2023-06-10T14:23:27;5.47;;;4.20;;
6983;SDS011;3532;51.118;7.210;2023-06-10T14:25:53;5.10;;;4.67;;
6983;SDS011;3532;51.118;7.210;2023-06-10T14:28:18;5.37;;;4.30;;
6983;SDS011;3532;51.118;7.210;2023-06-10T14:30:43;5.23;;;4.73;;
6983;SDS011;3532;51.118;7.210;2023-06-10T14:33:08;5.10;;;4.70;;
6983;SDS011;3532;51.118;7.210;2023-06-10T14:35:34;5.33;;;4.80;;
6983;SDS011;3532;51.118;7.210;2023-06-10T14:37:59;6.13;;;5.53;;
6983;SDS011;3532;51.118;7.210;2023-06-10T14:40:24;4.83;;;4.43;;
6983;SDS011;3532;51.118;7.210;2023-06-10T14:42:53;6.23;;;4.40;;
6983;SDS011;3532;51.118;7.210;2023-06-10T14:45:19;4.70;;;4.30;;
6983;SDS011;3532;51.118;7.210;2023-06-10T14:47:44;5.63;;;4.53;;
6983;SDS011;3532;51.118;7.210;2023-06-10T14:50:11;6.70;;;4.27;;
6983;SDS011;3532;51.118;7.210;2023-06-10T14:52:37;6.03;;;4.53;;
6983;SDS011;3532;51.118;7.210;2023-06-10T14:55:02;5.33;;;4.00;;
6983;SDS011;3532;51.118;7.210;2023-06-10T14:57:28;4.37;;;3.97;;
6983;SDS011;3532;51.118;7.210;2023-06-10T14:59:53;4.17;;;3.87;;
6983;SDS011;3532;51.118;7.210;2023-06-10T15:02:18;5.57;;;4.13;;
6983;SDS011;3532;51.118;7.210;2023-06-10T15:04:44;4.53;;;4.23;;
6983;SDS011;3532;51.118;7.210;2023-06-10T15:07:09;5.43;;;4.30;;
6983;SDS011;3532;51.118;7.210;2023-06-10T15:09:34;4.50;;;4.10;;
6983;SDS011;3532;51.118;7.210;2023-06-10T15:11:59;4.40;;;4.00;;
6983;SDS011;3532;51.118;7.210;2023-06-10T15:14:25;4.67;;;4.27;;
6983;SDS011;3532;51.118;7.210;2023-06-10T15:16:50;5.10;;;4.70;;
6983;SDS011;3532;51.118;7.210;2023-06-10T15:19:16;5.90;;;4.80;;
6983;SDS011;3532;51.118;7.210;2023-06-10T15:21:41;4.23;;;3.83;;
6983;SDS011;3532;51.118;7.210;2023-06-10T15:24:07;5.63;;;4.60;;
6983;SDS011;3532;51.118;7.210;2023-06-10T15:26:32;7.27;;;4.60;;
6983;SDS011;3532;51.118;7.210;2023-06-10T15:28:57;5.03;;;4.53;;
6983;SDS011;3532;51.118;7.210;2023-06-10T15:31:23;5.13;;;4.30;;
6983;SDS011;3532;51.118;7.210;2023-06-10T15:33:48;5.00;;;4.47;;